Terminal Aerodrome Forecast
Issued by NWS Northern Indiana

Home | Current Version | Previous Version | Graphics & Text | Print | Product List | Glossary On
Versions: 1 2 3 4 5 6 7 8 9 10 11 12
869
FTUS43 KIWX 210520
TAFFWA
TAF
KFWA 210520Z 2106/2206 21014G22KT P6SM FEW250 WS020/23050KT
     FM211400 23017G26KT P6SM BKN250
     FM212000 27014G22KT P6SM -SHRA BKN050 OVC150
     FM220000 30010KT P6SM BKN050=

USA.gov is the U.S. government's official web portal to all federal, state and local government web resources and services.